Time;durP1;ratioP1;P1;durP2;ratioP2;P2;SDS_P1;SDS_P2;PMS_P1;PMS_P2;Temp;Humidity;BMP_temperature;BMP_pressure;BME280_temperature;BME280_humidity;BME280_pressure;Samples;Min_cycle;Max_cycle;Signal;HPM_P1;HPM_P2
2023/05/22 00:02:37;;;;;;;17.33;13.60;;;15.80;99.90;;;;;;5023931;28;20452;-71
2023/05/22 00:05:23;;;;;;;16.73;14.30;;;15.80;99.90;;;;;;5024905;28;20614;-73
2023/05/22 00:08:10;;;;;;;13.50;12.17;;;15.70;99.90;;;;;;5022953;28;20448;-71
2023/05/22 00:10:57;;;;;;;14.87;13.27;;;15.70;99.90;;;;;;5024114;28;20450;-71
2023/05/22 00:13:42;;;;;;;16.30;13.97;;;15.80;99.90;;;;;;5028004;28;20516;-71
2023/05/22 00:16:28;;;;;;;18.30;13.30;;;15.80;99.90;;;;;;5025169;28;20680;-71
2023/05/22 00:19:15;;;;;;;19.13;12.80;;;15.90;99.90;;;;;;5024884;28;20483;-71
2023/05/22 00:22:00;;;;;;;14.77;13.27;;;15.80;99.90;;;;;;5016218;28;20422;-71
2023/05/22 00:24:45;;;;;;;18.83;13.10;;;15.70;99.90;;;;;;5026074;28;20497;-71
2023/05/22 00:27:33;;;;;;;14.93;12.73;;;15.70;99.90;;;;;;5021839;28;20577;-72
2023/05/22 00:30:18;;;;;;;16.97;12.23;;;15.60;99.90;;;;;;5022227;28;20449;-71
2023/05/22 00:33:03;;;;;;;18.77;12.87;;;15.50;99.90;;;;;;5028136;28;20452;-71
2023/05/22 00:35:49;;;;;;;14.10;12.60;;;15.60;99.90;;;;;;5028875;28;20551;-72
2023/05/22 00:38:36;;;;;;;16.00;13.20;;;15.30;99.90;;;;;;5027173;28;20480;-71
2023/05/22 00:41:22;;;;;;;16.53;13.50;;;15.30;99.90;;;;;;5025907;28;20454;-71
2023/05/22 00:44:09;;;;;;;14.23;12.67;;;15.40;99.90;;;;;;5026022;28;20442;-71
2023/05/22 00:46:55;;;;;;;16.27;14.17;;;15.30;99.90;;;;;;5028936;28;20457;-72
2023/05/22 00:49:41;;;;;;;17.23;14.73;;;15.30;99.90;;;;;;5025309;28;20610;-71
2023/05/22 00:52:27;;;;;;;14.93;12.23;;;15.30;99.90;;;;;;5025879;28;20442;-71
2023/05/22 00:55:13;;;;;;;15.70;13.27;;;15.30;99.90;;;;;;5025355;28;20442;-73
2023/05/22 00:58:00;;;;;;;16.63;14.10;;;15.20;99.90;;;;;;5025441;28;20462;-71
2023/05/22 01:00:48;;;;;;;16.03;13.03;;;15.20;99.90;;;;;;5025002;28;20586;-72
2023/05/22 01:03:33;;;;;;;15.20;13.23;;;15.20;99.90;;;;;;5026504;28;20455;-71
2023/05/22 01:06:20;;;;;;;16.90;13.67;;;15.20;99.90;;;;;;5027017;28;20510;-71
2023/05/22 01:09:05;;;;;;;16.10;14.43;;;15.00;99.90;;;;;;5029405;28;20422;-71
2023/05/22 01:11:58;;;;;;;16.93;14.00;;;14.80;99.90;;;;;;5025620;28;20968;-71
2023/05/22 01:14:54;;;;;;;19.83;15.60;;;15.00;99.90;;;;;;5026329;28;20455;-72
2023/05/22 01:17:51;;;;;;;18.50;13.97;;;15.00;99.90;;;;;;5028711;28;20794;-71
2023/05/22 01:20:41;;;;;;;13.43;12.03;;;15.10;99.90;;;;;;5027956;28;20934;-72
2023/05/22 01:23:52;;;;;;;15.80;13.70;;;15.00;99.90;;;;;;5027753;28;20448;-72
2023/05/22 01:27:10;;;;;;;17.47;14.40;;;15.00;99.90;;;;;;5028620;28;20542;-71
2023/05/22 01:30:10;;;;;;;16.20;12.87;;;15.00;99.90;;;;;;5026812;28;20443;-71
2023/05/22 01:32:59;;;;;;;13.53;12.13;;;15.00;99.90;;;;;;5031266;28;20912;-71
2023/05/22 01:35:47;;;;;;;18.57;12.47;;;15.10;99.90;;;;;;5029908;28;20470;-71
2023/05/22 01:38:34;;;;;;;15.83;12.57;;;15.00;99.90;;;;;;5028801;28;21044;-71
2023/05/22 01:41:21;;;;;;;13.57;12.17;;;15.10;99.90;;;;;;5028323;28;20818;-72
2023/05/22 01:44:06;;;;;;;17.33;14.30;;;15.20;99.90;;;;;;5030577;28;20440;-71
2023/05/22 01:46:52;;;;;;;15.80;14.10;;;15.10;99.90;;;;;;5027701;28;20517;-72
2023/05/22 01:49:39;;;;;;;13.87;11.70;;;15.20;99.90;;;;;;5023793;28;20442;-72
2023/05/22 01:52:33;;;;;;;13.97;11.73;;;15.20;99.90;;;;;;5028131;28;20798;-71
2023/05/22 01:55:26;;;;;;;15.10;13.13;;;15.10;99.90;;;;;;5031168;28;20422;-71
2023/05/22 01:58:20;;;;;;;20.43;13.23;;;15.00;99.90;;;;;;5025610;28;20426;-71
2023/05/22 02:01:08;;;;;;;14.83;13.30;;;14.90;99.90;;;;;;5026412;28;20495;-71
2023/05/22 02:03:57;;;;;;;15.50;13.00;;;14.90;99.90;;;;;;5026514;28;20808;-71
2023/05/22 02:06:44;;;;;;;14.33;12.83;;;14.80;99.90;;;;;;5026391;28;20542;-71
2023/05/22 02:09:30;;;;;;;14.77;12.60;;;14.90;99.90;;;;;;5024535;28;20431;-71
2023/05/22 02:12:16;;;;;;;15.40;12.80;;;14.80;99.90;;;;;;5029053;28;20437;-71
2023/05/22 02:15:02;;;;;;;14.63;13.13;;;14.80;99.90;;;;;;5026317;28;20472;-72
2023/05/22 02:17:48;;;;;;;15.03;12.73;;;14.80;99.90;;;;;;5026759;28;20585;-73
2023/05/22 02:20:33;;;;;;;16.40;13.03;;;14.80;99.90;;;;;;5024384;28;20459;-72
2023/05/22 02:23:20;;;;;;;15.93;13.53;;;14.90;99.90;;;;;;5027794;28;20418;-72
2023/05/22 02:26:06;;;;;;;15.90;12.97;;;14.80;99.90;;;;;;5031002;28;21092;-72
2023/05/22 02:28:51;;;;;;;14.60;12.50;;;14.80;99.90;;;;;;5025124;28;21712;-72
2023/05/22 02:31:37;;;;;;;14.83;12.73;;;14.80;99.90;;;;;;5029751;28;20478;-71
2023/05/22 02:34:22;;;;;;;12.23;10.97;;;14.80;99.90;;;;;;5030020;28;20559;-71
2023/05/22 02:37:07;;;;;;;18.90;13.00;;;14.80;99.90;;;;;;5027489;28;20486;-71
2023/05/22 02:39:54;;;;;;;13.67;12.37;;;14.70;99.90;;;;;;5023496;28;20483;-71
2023/05/22 02:42:40;;;;;;;15.13;13.57;;;14.70;99.90;;;;;;5029955;28;20459;-72
2023/05/22 02:45:25;;;;;;;15.07;12.40;;;14.70;99.90;;;;;;5023990;28;20441;-71
2023/05/22 02:48:11;;;;;;;16.23;12.63;;;14.70;99.90;;;;;;5021515;28;20429;-71
2023/05/22 02:50:57;;;;;;;15.57;12.40;;;14.60;99.90;;;;;;5021484;28;20455;-71
2023/05/22 02:53:42;;;;;;;15.27;13.70;;;14.70;99.90;;;;;;5025208;28;20448;-71
2023/05/22 02:56:29;;;;;;;13.87;12.40;;;14.50;99.90;;;;;;5027854;28;20496;-72
2023/05/22 02:59:15;;;;;;;15.90;14.03;;;14.50;99.90;;;;;;5021884;28;20453;-71
2023/05/22 03:02:01;;;;;;;16.13;14.43;;;14.30;99.90;;;;;;5025928;28;20435;-71
2023/05/22 03:04:46;;;;;;;15.07;12.93;;;14.30;99.90;;;;;;5027196;28;20668;-71
2023/05/22 03:07:33;;;;;;;15.60;14.00;;;14.30;99.90;;;;;;5022604;28;20580;-71
2023/05/22 03:10:19;;;;;;;16.23;14.53;;;14.40;99.90;;;;;;5024974;28;20423;-72
2023/05/22 03:13:05;;;;;;;19.80;15.00;;;14.40;99.90;;;;;;5024313;28;21021;-71
2023/05/22 03:15:51;;;;;;;18.30;13.30;;;14.30;99.90;;;;;;5020237;28;20468;-72
2023/05/22 03:18:36;;;;;;;18.07;14.87;;;14.20;99.90;;;;;;5021497;28;20791;-71
2023/05/22 03:21:22;;;;;;;21.40;14.10;;;14.20;99.90;;;;;;5025210;28;20846;-71
2023/05/22 03:24:08;;;;;;;15.70;13.30;;;14.20;99.90;;;;;;5018368;28;20807;-71
2023/05/22 03:26:53;;;;;;;13.83;12.33;;;14.40;99.90;;;;;;5024699;28;20876;-71
2023/05/22 03:29:40;;;;;;;17.47;13.60;;;14.50;99.90;;;;;;5024556;28;21015;-71
2023/05/22 03:32:26;;;;;;;16.63;13.77;;;14.40;99.90;;;;;;5025410;28;20800;-71
2023/05/22 03:35:14;;;;;;;14.97;13.27;;;14.20;99.90;;;;;;5022189;28;20448;-71
2023/05/22 03:37:59;;;;;;;16.20;13.43;;;14.10;99.90;;;;;;5025049;28;20447;-72
2023/05/22 03:40:45;;;;;;;17.60;14.17;;;14.10;99.90;;;;;;5025916;28;20461;-71
2023/05/22 03:43:30;;;;;;;13.87;12.30;;;14.20;99.90;;;;;;5025099;28;20876;-73
2023/05/22 03:46:17;;;;;;;16.50;13.33;;;14.30;99.90;;;;;;5024970;28;21050;-72
2023/05/22 03:49:03;;;;;;;15.97;13.83;;;14.30;99.90;;;;;;5024015;28;20438;-71
2023/05/22 03:51:48;;;;;;;14.20;12.60;;;14.30;99.90;;;;;;5027962;28;20451;-71
2023/05/22 03:54:34;;;;;;;15.47;12.23;;;14.50;99.90;;;;;;5026820;28;20774;-72
2023/05/22 03:57:19;;;;;;;15.67;13.47;;;14.50;99.90;;;;;;5020090;28;20486;-71
2023/05/22 04:00:08;;;;;;;15.30;12.83;;;14.50;99.90;;;;;;5021148;28;21229;-71
2023/05/22 04:02:57;;;;;;;14.77;13.23;;;14.30;99.90;;;;;;5026461;28;20447;-71
2023/05/22 04:05:42;;;;;;;14.17;12.13;;;14.20;99.90;;;;;;5021677;28;20548;-71
2023/05/22 04:08:28;;;;;;;15.60;12.70;;;14.20;99.90;;;;;;5020728;28;20499;-71
2023/05/22 04:11:14;;;;;;;13.73;12.33;;;14.20;99.90;;;;;;5022840;28;20971;-71
2023/05/22 04:14:03;;;;;;;16.90;13.23;;;14.30;99.90;;;;;;5018740;28;20781;-71
2023/05/22 04:16:48;;;;;;;17.90;13.40;;;14.40;99.90;;;;;;5024793;28;20525;-71
2023/05/22 04:19:35;;;;;;;13.67;12.27;;;14.50;99.90;;;;;;5024481;28;20462;-71
2023/05/22 04:22:21;;;;;;;16.37;12.30;;;14.60;99.90;;;;;;5024416;28;20529;-71
2023/05/22 04:25:07;;;;;;;16.60;12.00;;;14.60;99.90;;;;;;5026022;28;20482;-71
2023/05/22 04:27:53;;;;;;;15.73;12.13;;;14.70;99.90;;;;;;5023516;28;20457;-71
2023/05/22 04:30:38;;;;;;;17.33;12.70;;;14.70;99.90;;;;;;5024458;28;20521;-71
2023/05/22 04:33:24;;;;;;;16.43;12.80;;;14.70;99.90;;;;;;5020908;28;20433;-71
2023/05/22 04:36:11;;;;;;;15.70;11.80;;;14.70;99.90;;;;;;5022371;28;20493;-71
2023/05/22 04:38:59;;;;;;;13.27;11.90;;;14.80;99.90;;;;;;5019746;28;20939;-71
2023/05/22 04:41:44;;;;;;;13.37;11.60;;;14.80;99.90;;;;;;5023777;28;20444;-71
2023/05/22 04:44:33;;;;;;;15.43;12.63;;;14.80;99.90;;;;;;5025641;28;20519;-71
2023/05/22 04:47:18;;;;;;;15.03;13.47;;;14.70;99.90;;;;;;5019600;28;20569;-72
2023/05/22 04:50:04;;;;;;;15.47;13.30;;;14.70;99.90;;;;;;5025859;28;20440;-71
2023/05/22 04:52:52;;;;;;;15.87;14.27;;;14.80;99.90;;;;;;5026242;28;20903;-71
2023/05/22 04:55:38;;;;;;;16.03;14.20;;;14.90;99.90;;;;;;5023778;28;20432;-71
2023/05/22 04:58:26;;;;;;;15.47;13.77;;;15.00;99.90;;;;;;5023921;28;20826;-71
2023/05/22 05:01:11;;;;;;;16.97;15.03;;;15.00;99.90;;;;;;5025536;28;20478;-71
2023/05/22 05:03:56;;;;;;;17.37;13.70;;;15.20;99.90;;;;;;5024698;28;20551;-71
2023/05/22 05:06:42;;;;;;;18.87;14.80;;;15.20;99.90;;;;;;5018830;28;20442;-71
2023/05/22 05:09:29;;;;;;;17.83;15.27;;;15.20;99.90;;;;;;5020668;28;20538;-72
2023/05/22 05:12:15;;;;;;;17.97;14.77;;;15.30;99.90;;;;;;5022352;28;20462;-72
2023/05/22 05:15:00;;;;;;;18.53;14.20;;;15.40;99.90;;;;;;5028114;28;21011;-71
2023/05/22 05:17:46;;;;;;;17.93;16.10;;;15.50;99.90;;;;;;5021377;28;20826;-71
2023/05/22 05:20:32;;;;;;;16.93;15.20;;;15.60;99.90;;;;;;5030348;28;20483;-71
2023/05/22 05:23:17;;;;;;;17.73;15.83;;;15.60;99.90;;;;;;5019296;28;20443;-71
2023/05/22 05:26:04;;;;;;;17.57;15.40;;;15.60;99.90;;;;;;5026688;28;20922;-71
2023/05/22 05:28:50;;;;;;;16.97;15.27;;;15.60;99.90;;;;;;5028110;28;20992;-72
2023/05/22 05:31:35;;;;;;;19.60;15.03;;;15.50;99.90;;;;;;5028281;28;20541;-71
2023/05/22 05:34:21;;;;;;;15.07;13.30;;;15.60;99.90;;;;;;5029654;28;20439;-71
2023/05/22 05:37:06;;;;;;;15.87;14.17;;;15.70;99.90;;;;;;5021719;28;20612;-73
2023/05/22 05:39:51;;;;;;;20.43;14.60;;;15.90;99.90;;;;;;5028238;28;20479;-71
2023/05/22 05:42:38;;;;;;;17.73;15.83;;;15.90;99.90;;;;;;5027568;28;20426;-72
2023/05/22 05:45:24;;;;;;;21.17;15.93;;;16.10;99.90;;;;;;5027180;28;21966;-71
2023/05/22 05:48:10;;;;;;;18.43;14.30;;;16.20;99.90;;;;;;5028822;28;20443;-71
2023/05/22 05:50:55;;;;;;;22.00;17.10;;;16.30;99.90;;;;;;5025759;28;20529;-71
2023/05/22 05:53:41;;;;;;;18.90;15.70;;;16.30;99.90;;;;;;5024648;28;20905;-73
2023/05/22 05:56:27;;;;;;;17.73;15.83;;;16.40;99.90;;;;;;5025010;28;20495;-72
2023/05/22 05:59:13;;;;;;;17.97;15.13;;;16.50;99.90;;;;;;5024461;28;20450;-71
2023/05/22 06:01:59;;;;;;;16.20;14.60;;;16.50;99.90;;;;;;5028719;28;20456;-72
2023/05/22 06:04:47;;;;;;;22.27;17.83;;;16.60;99.90;;;;;;5024906;28;20443;-72
2023/05/22 06:07:33;;;;;;;20.03;17.00;;;16.70;99.90;;;;;;5031068;28;21051;-71
2023/05/22 06:10:18;;;;;;;22.97;17.67;;;16.70;99.90;;;;;;5026285;28;20443;-71
2023/05/22 06:13:04;;;;;;;23.03;15.90;;;16.80;99.90;;;;;;5027184;28;20936;-71
2023/05/22 06:15:50;;;;;;;26.23;17.37;;;17.00;99.90;;;;;;5023463;28;20434;-73
2023/05/22 06:18:36;;;;;;;23.13;16.67;;;17.10;99.90;;;;;;5029201;28;21229;-71
2023/05/22 06:21:21;;;;;;;19.67;16.50;;;17.30;99.90;;;;;;5025369;28;20841;-72
2023/05/22 06:24:08;;;;;;;18.67;16.77;;;17.40;99.90;;;;;;5024377;28;20451;-74
2023/05/22 06:26:53;;;;;;;17.87;15.77;;;17.50;99.90;;;;;;5027742;28;20976;-71
2023/05/22 06:29:39;;;;;;;18.40;15.90;;;17.70;99.90;;;;;;5028010;28;20445;-71
2023/05/22 06:32:26;;;;;;;22.53;17.00;;;17.90;99.90;;;;;;5026613;28;20445;-71
2023/05/22 06:35:11;;;;;;;17.10;15.30;;;18.00;99.90;;;;;;5026269;28;20443;-71
2023/05/22 06:37:57;;;;;;;19.23;15.87;;;18.10;99.90;;;;;;5023376;28;20463;-71
2023/05/22 06:40:43;;;;;;;19.33;15.20;;;18.20;99.90;;;;;;5028723;28;20665;-71
2023/05/22 06:43:28;;;;;;;18.30;16.10;;;18.40;99.90;;;;;;5025520;28;20443;-72
2023/05/22 06:46:14;;;;;;;20.70;16.43;;;18.50;99.90;;;;;;5022759;28;20467;-72
2023/05/22 06:49:01;;;;;;;18.80;16.10;;;18.60;99.90;;;;;;5026758;28;20565;-71
2023/05/22 06:51:46;;;;;;;21.43;15.30;;;18.60;99.90;;;;;;5026051;28;20468;-72
2023/05/22 06:54:32;;;;;;;19.30;16.60;;;18.80;99.90;;;;;;5023064;28;20451;-71
2023/05/22 06:57:17;;;;;;;22.10;18.00;;;18.90;99.90;;;;;;5023153;28;20523;-71
2023/05/22 07:00:06;;;;;;;22.30;16.00;;;19.00;99.90;;;;;;5024421;28;20615;-72
2023/05/22 07:02:51;;;;;;;20.63;17.73;;;19.10;99.90;;;;;;5024550;28;20549;-72
2023/05/22 07:05:38;;;;;;;19.13;17.10;;;19.20;99.90;;;;;;5029361;28;20460;-71
2023/05/22 07:08:23;;;;;;;19.87;17.80;;;19.40;99.90;;;;;;5012215;28;20505;-72
2023/05/22 07:11:09;;;;;;;21.50;16.63;;;19.50;99.90;;;;;;5031285;28;20580;-71
2023/05/22 07:13:54;;;;;;;20.53;17.33;;;19.50;99.90;;;;;;5028715;28;20449;-71
2023/05/22 07:16:40;;;;;;;18.60;16.60;;;19.70;99.90;;;;;;5027590;28;21015;-71
2023/05/22 07:19:26;;;;;;;20.67;16.37;;;19.80;99.90;;;;;;5026275;28;20450;-71
2023/05/22 07:22:12;;;;;;;26.47;16.40;;;19.90;99.90;;;;;;5027134;28;20433;-71
2023/05/22 07:24:58;;;;;;;19.47;15.20;;;20.00;99.90;;;;;;5024347;28;21024;-71
2023/05/22 07:27:43;;;;;;;20.10;16.00;;;19.80;99.90;;;;;;5026415;28;20444;-71
2023/05/22 07:30:30;;;;;;;16.30;14.53;;;19.90;99.90;;;;;;5019417;28;20433;-73
2023/05/22 07:33:15;;;;;;;18.70;15.57;;;20.10;99.90;;;;;;5024686;28;20447;-71
2023/05/22 07:36:01;;;;;;;15.30;13.60;;;20.30;99.90;;;;;;5014168;28;20470;-71
2023/05/22 07:38:47;;;;;;;14.10;12.67;;;20.40;99.90;;;;;;5020450;28;20611;-71
2023/05/22 07:41:33;;;;;;;18.10;12.93;;;20.50;96.10;;;;;;5022222;28;20463;-71
2023/05/22 07:44:19;;;;;;;18.70;14.27;;;20.50;95.00;;;;;;5020880;28;20444;-73
2023/05/22 07:47:05;;;;;;;15.60;14.00;;;20.60;94.30;;;;;;5022354;28;20431;-74
2023/05/22 07:49:50;;;;;;;16.37;11.47;;;20.70;93.90;;;;;;5025607;28;20497;-71
2023/05/22 07:52:36;;;;;;;22.00;12.57;;;20.80;93.40;;;;;;5035598;28;20987;-71
2023/05/22 07:55:23;;;;;;;13.17;11.77;;;20.90;91.10;;;;;;5027667;28;20973;-71
2023/05/22 07:58:09;;;;;;;14.50;12.40;;;21.00;91.60;;;;;;5030394;28;20989;-71
2023/05/22 08:00:55;;;;;;;14.53;13.03;;;21.20;91.00;;;;;;5023756;28;20887;-71
2023/05/22 08:03:40;;;;;;;17.63;12.13;;;21.30;88.40;;;;;;5023434;28;20440;-71
2023/05/22 08:06:25;;;;;;;12.57;10.97;;;21.40;88.70;;;;;;5019819;28;21045;-72
2023/05/22 08:09:11;;;;;;;16.50;11.20;;;21.50;85.10;;;;;;5017290;28;20445;-70
2023/05/22 08:11:58;;;;;;;14.07;12.57;;;21.70;84.20;;;;;;5018886;28;20542;-72
2023/05/22 08:14:43;;;;;;;14.60;10.93;;;21.80;81.40;;;;;;5018487;28;20449;-72
2023/05/22 08:17:29;;;;;;;13.07;11.60;;;21.90;78.60;;;;;;5025024;28;20860;-70
2023/05/22 08:20:14;;;;;;;12.70;11.00;;;22.00;76.20;;;;;;5023205;28;20526;-70
2023/05/22 08:23:00;;;;;;;12.90;10.70;;;22.10;74.40;;;;;;5025746;28;20453;-70
2023/05/22 08:25:45;;;;;;;14.10;10.67;;;22.20;75.10;;;;;;5023783;28;20447;-71
2023/05/22 08:28:32;;;;;;;14.13;11.60;;;22.20;73.50;;;;;;5029419;28;20448;-70
2023/05/22 08:31:18;;;;;;;13.57;11.87;;;22.30;72.90;;;;;;5028655;28;20511;-71
2023/05/22 08:34:05;;;;;;;16.00;11.10;;;22.40;72.00;;;;;;5025569;28;20935;-70
2023/05/22 08:36:50;;;;;;;13.37;11.07;;;22.50;70.50;;;;;;5029054;28;20464;-70
2023/05/22 08:39:35;;;;;;;12.63;11.27;;;22.60;72.10;;;;;;5029110;28;20576;-71
2023/05/22 08:42:21;;;;;;;13.50;12.10;;;22.70;71.10;;;;;;5023572;28;20465;-70
2023/05/22 08:45:09;;;;;;;15.73;12.67;;;22.80;70.60;;;;;;5019724;28;20449;-71
2023/05/22 08:47:57;;;;;;;13.90;11.97;;;22.80;68.70;;;;;;5031877;28;20905;-70
2023/05/22 08:50:42;;;;;;;14.20;12.10;;;22.80;68.10;;;;;;5027216;28;20799;-70
2023/05/22 08:53:29;;;;;;;12.93;11.63;;;22.80;70.20;;;;;;5029764;28;20445;-71
2023/05/22 08:56:15;;;;;;;13.87;12.47;;;22.90;69.30;;;;;;5026903;28;20488;-70
2023/05/22 08:59:01;;;;;;;14.87;12.73;;;22.90;68.60;;;;;;5056753;22;20477;-69
2023/05/22 09:01:51;;;;;;;17.90;12.40;;;23.00;67.80;;;;;;5085000;28;20831;-69
2023/05/22 09:04:36;;;;;;;15.70;12.60;;;23.20;70.70;;;;;;5065065;28;20530;-69
2023/05/22 09:07:23;;;;;;;14.13;12.67;;;23.30;71.40;;;;;;5074780;28;20445;-70
2023/05/22 09:10:09;;;;;;;14.63;13.03;;;23.30;68.00;;;;;;5065906;28;20470;-69
2023/05/22 09:13:02;;;;;;;15.00;13.50;;;23.40;69.50;;;;;;5070011;28;20971;-70
2023/05/22 09:15:48;;;;;;;20.90;14.10;;;23.50;69.00;;;;;;5069926;28;20488;-69
2023/05/22 09:18:35;;;;;;;17.43;14.80;;;23.60;70.40;;;;;;5070647;28;20442;-69
2023/05/22 09:21:22;;;;;;;15.67;13.70;;;23.40;69.10;;;;;;5070922;28;20486;-70
2023/05/22 09:24:09;;;;;;;19.50;14.60;;;23.50;70.70;;;;;;5063032;28;20793;-69
2023/05/22 09:26:54;;;;;;;14.23;12.83;;;23.60;72.80;;;;;;5071195;28;20458;-69
2023/05/22 09:29:50;;;;;;;16.37;14.67;;;23.70;68.60;;;;;;5064875;28;20604;-69
2023/05/22 09:32:36;;;;;;;16.47;14.77;;;23.80;68.00;;;;;;5062492;28;20444;-70
2023/05/22 09:35:26;;;;;;;15.10;13.50;;;23.90;69.00;;;;;;5074569;28;20820;-70
2023/05/22 09:38:12;;;;;;;15.33;13.73;;;23.80;69.30;;;;;;5067083;28;20454;-70
2023/05/22 09:40:58;;;;;;;18.77;13.70;;;23.60;67.90;;;;;;5067188;28;20561;-71
2023/05/22 09:43:49;;;;;;;16.23;12.33;;;23.50;67.80;;;;;;5062115;28;20443;-71
2023/05/22 09:46:40;;;;;;;17.20;12.40;;;23.60;68.90;;;;;;5067532;28;21212;-71
2023/05/22 09:49:25;;;;;;;14.73;12.57;;;23.70;67.90;;;;;;5063751;28;20470;-71
2023/05/22 09:52:12;;;;;;;16.60;13.30;;;23.90;69.00;;;;;;5070960;28;20435;-71
2023/05/22 09:55:00;;;;;;;14.77;13.27;;;24.00;64.20;;;;;;5069804;28;20566;-71
2023/05/22 09:57:47;;;;;;;24.93;14.30;;;24.00;63.50;;;;;;5071197;28;20451;-70
2023/05/22 10:00:35;;;;;;;19.90;14.30;;;24.10;63.30;;;;;;5070690;28;20629;-71
2023/05/22 10:03:23;;;;;;;15.20;13.30;;;24.10;63.10;;;;;;5064654;28;20448;-71
2023/05/22 10:06:11;;;;;;;17.77;12.63;;;24.00;59.80;;;;;;5071377;28;20510;-71
2023/05/22 10:09:03;;;;;;;19.20;12.67;;;24.00;60.90;;;;;;5070686;28;20470;-71
2023/05/22 10:11:51;;;;;;;13.97;12.57;;;24.00;61.90;;;;;;5070763;28;20443;-70
2023/05/22 10:14:37;;;;;;;16.47;11.50;;;24.10;58.50;;;;;;5068589;28;20443;-70
2023/05/22 10:17:23;;;;;;;15.83;13.67;;;24.20;57.80;;;;;;5059524;28;20457;-70
2023/05/22 10:20:10;;;;;;;16.37;12.37;;;24.40;60.50;;;;;;5070614;28;20593;-70
2023/05/22 10:22:56;;;;;;;15.20;11.67;;;24.50;60.30;;;;;;5063203;28;20510;-71
2023/05/22 10:25:43;;;;;;;18.40;13.90;;;24.50;58.20;;;;;;5069820;28;20473;-71
2023/05/22 10:28:35;;;;;;;18.63;14.50;;;24.50;58.10;;;;;;5064142;28;20450;-71
2023/05/22 10:31:32;;;;;;;20.43;15.23;;;24.20;62.80;;;;;;5067844;28;20431;-71
2023/05/22 10:34:25;;;;;;;23.30;16.83;;;24.10;64.30;;;;;;5067984;28;20586;-71
2023/05/22 10:37:26;;;;;;;24.80;17.47;;;24.20;66.20;;;;;;5068084;28;20451;-71
2023/05/22 10:40:15;;;;;;;22.40;14.90;;;24.30;65.10;;;;;;5064810;28;20580;-71
2023/05/22 10:43:03;;;;;;;18.87;16.10;;;24.50;63.60;;;;;;5065575;28;20451;-71
2023/05/22 10:45:48;;;;;;;17.47;15.67;;;24.70;65.20;;;;;;5068817;28;20525;-71
2023/05/22 10:48:38;;;;;;;18.00;15.70;;;24.60;64.20;;;;;;5065695;28;20447;-71
2023/05/22 10:51:23;;;;;;;20.73;16.00;;;24.50;65.40;;;;;;5062066;28;20435;-71
2023/05/22 10:54:09;;;;;;;19.53;17.63;;;24.50;66.40;;;;;;5066749;28;20447;-71
2023/05/22 10:57:09;;;;;;;22.70;19.00;;;24.50;67.30;;;;;;5069819;28;21030;-71
2023/05/22 11:00:08;;;;;;;23.40;19.77;;;24.40;68.50;;;;;;5067870;28;20486;-71
2023/05/22 11:03:04;;;;;;;26.53;19.63;;;24.50;70.70;;;;;;5066634;28;20863;-71
2023/05/22 11:05:53;;;;;;;33.33;21.57;;;24.50;72.40;;;;;;5070043;28;20802;-71
2023/05/22 11:08:38;;;;;;;28.57;21.10;;;24.50;71.70;;;;;;5069784;28;20533;-71
2023/05/22 11:11:25;;;;;;;26.33;22.30;;;24.50;72.20;;;;;;5068561;28;20444;-71
2023/05/22 11:14:11;;;;;;;25.93;20.43;;;24.40;69.90;;;;;;5067552;28;20451;-71
2023/05/22 11:17:01;;;;;;;23.53;20.47;;;24.40;71.10;;;;;;5065340;28;20439;-71
2023/05/22 11:20:00;;;;;;;23.30;19.17;;;24.40;72.20;;;;;;5069674;28;20585;-71
2023/05/22 11:22:51;;;;;;;27.57;21.30;;;24.50;71.80;;;;;;5065889;28;20512;-71
2023/05/22 11:25:37;;;;;;;26.90;21.10;;;24.40;71.40;;;;;;5066490;28;20450;-71
2023/05/22 11:28:23;;;;;;;29.03;20.77;;;24.20;72.70;;;;;;5061729;28;20594;-71
2023/05/22 11:31:09;;;;;;;24.97;20.60;;;24.10;71.20;;;;;;5063810;28;20450;-71
2023/05/22 11:33:56;;;;;;;21.10;18.97;;;24.10;71.50;;;;;;5065062;28;20816;-71
2023/05/22 11:36:42;;;;;;;25.23;19.13;;;24.10;66.60;;;;;;5064622;28;20447;-71
2023/05/22 11:39:27;;;;;;;23.17;18.03;;;24.30;70.50;;;;;;5067311;28;20458;-71
2023/05/22 11:42:13;;;;;;;21.93;19.60;;;24.60;71.10;;;;;;5059130;28;20855;-71
2023/05/22 11:45:00;;;;;;;24.43;17.50;;;24.90;67.90;;;;;;5061429;28;20443;-71
2023/05/22 11:47:45;;;;;;;18.37;16.37;;;25.20;64.50;;;;;;5062911;28;20458;-71
2023/05/22 11:50:32;;;;;;;18.20;16.30;;;25.50;65.70;;;;;;5061706;28;20521;-71
2023/05/22 11:53:19;;;;;;;17.20;15.50;;;25.80;64.90;;;;;;5068713;28;20435;-71
2023/05/22 11:56:05;;;;;;;18.70;15.60;;;26.10;62.00;;;;;;5064076;28;20446;-71
2023/05/22 11:58:50;;;;;;;23.40;16.70;;;26.30;56.00;;;;;;5066304;28;20482;-72
2023/05/22 12:01:36;;;;;;;20.60;15.70;;;26.50;56.20;;;;;;5060428;28;20605;-72
2023/05/22 12:04:23;;;;;;;20.10;17.20;;;26.60;54.70;;;;;;5074408;28;20453;-72
2023/05/22 12:07:10;;;;;;;20.10;17.97;;;26.60;54.90;;;;;;5076594;28;20443;-72
2023/05/22 12:09:56;;;;;;;25.97;18.67;;;26.60;53.30;;;;;;5075974;28;20516;-72
2023/05/22 12:12:44;;;;;;;20.63;18.00;;;26.40;55.80;;;;;;5065869;28;20486;-72
2023/05/22 12:15:30;;;;;;;20.10;17.30;;;26.60;58.90;;;;;;5074531;28;20431;-72
2023/05/22 12:18:18;;;;;;;21.53;17.97;;;26.80;57.00;;;;;;5062634;28;20812;-72
2023/05/22 12:21:06;;;;;;;21.17;18.80;;;27.00;52.40;;;;;;5069295;28;20450;-72
2023/05/22 12:23:55;;;;;;;21.07;16.53;;;27.20;51.10;;;;;;5066936;28;20454;-72
2023/05/22 12:26:40;;;;;;;21.97;17.97;;;27.20;50.50;;;;;;5064414;28;20442;-72
2023/05/22 12:29:26;;;;;;;29.23;18.27;;;27.10;49.40;;;;;;5065136;28;20512;-72
2023/05/22 12:32:12;;;;;;;18.07;16.07;;;27.20;47.30;;;;;;5064196;28;20496;-72
2023/05/22 12:34:58;;;;;;;19.17;17.00;;;27.30;47.70;;;;;;5061532;28;20522;-72
2023/05/22 12:37:48;;;;;;;23.60;16.20;;;26.90;44.20;;;;;;5062428;28;20459;-72
2023/05/22 12:40:35;;;;;;;21.93;15.70;;;26.70;47.10;;;;;;5067586;28;20601;-72
2023/05/22 12:43:22;;;;;;;18.77;16.70;;;26.70;45.40;;;;;;5062592;28;20462;-72
2023/05/22 12:46:07;;;;;;;23.20;17.30;;;26.80;46.40;;;;;;5064290;28;20447;-72
2023/05/22 12:48:54;;;;;;;19.07;17.03;;;27.00;47.90;;;;;;5063822;28;20604;-72
2023/05/22 12:51:39;;;;;;;18.97;16.97;;;27.00;46.50;;;;;;5061862;28;20439;-72
2023/05/22 12:54:25;;;;;;;18.73;16.40;;;27.10;46.60;;;;;;5058319;28;20450;-72
2023/05/22 12:57:12;;;;;;;20.03;16.87;;;26.90;46.40;;;;;;5063735;28;20443;-72
2023/05/22 12:59:57;;;;;;;20.20;16.97;;;27.20;46.10;;;;;;5062357;28;20605;-72
2023/05/22 13:02:43;;;;;;;17.70;15.20;;;27.50;46.90;;;;;;5061852;28;20530;-72
2023/05/22 13:05:28;;;;;;;24.30;15.70;;;27.70;41.90;;;;;;5062423;28;20975;-72
2023/05/22 13:08:14;;;;;;;18.00;14.77;;;27.80;42.00;;;;;;5063450;28;21061;-72
2023/05/22 13:11:00;;;;;;;17.03;15.30;;;27.80;43.40;;;;;;5064694;28;22098;-72
2023/05/22 13:13:46;;;;;;;16.63;14.93;;;28.10;40.70;;;;;;5065274;28;20468;-72
2023/05/22 13:16:32;;;;;;;15.13;13.60;;;28.20;37.20;;;;;;5063093;28;20553;-73
2023/05/22 13:19:17;;;;;;;15.60;14.10;;;28.30;34.70;;;;;;5068559;28;20467;-72
2023/05/22 13:22:03;;;;;;;15.03;12.97;;;28.50;33.40;;;;;;5064583;28;20491;-73
2023/05/22 13:24:49;;;;;;;14.03;12.43;;;28.50;33.40;;;;;;5067300;28;20446;-72
2023/05/22 13:27:34;;;;;;;16.57;12.53;;;28.50;36.70;;;;;;5064093;28;20501;-72
2023/05/22 13:30:21;;;;;;;15.70;12.20;;;28.70;31.20;;;;;;5062362;28;20823;-72
2023/05/22 13:33:07;;;;;;;14.00;12.23;;;28.80;33.30;;;;;;5068640;28;20431;-72
2023/05/22 13:35:52;;;;;;;15.20;12.90;;;29.00;32.00;;;;;;5066629;28;20438;-72
2023/05/22 13:38:38;;;;;;;13.73;12.20;;;29.10;28.90;;;;;;5068225;28;20509;-72
2023/05/22 13:41:23;;;;;;;14.90;12.73;;;29.30;29.40;;;;;;5064929;28;20447;-72
2023/05/22 13:44:09;;;;;;;15.20;11.73;;;29.40;27.40;;;;;;5069426;28;20963;-71
2023/05/22 13:46:56;;;;;;;13.77;12.20;;;29.50;27.30;;;;;;5068163;28;20512;-71
2023/05/22 13:49:41;;;;;;;13.67;12.27;;;29.60;28.60;;;;;;5070831;28;20458;-71
2023/05/22 13:52:27;;;;;;;16.17;13.23;;;29.60;28.00;;;;;;5062513;28;20444;-72
2023/05/22 13:55:12;;;;;;;14.77;10.47;;;29.70;28.30;;;;;;5066928;28;20566;-71
2023/05/22 13:57:58;;;;;;;13.63;8.93;;;29.60;28.50;;;;;;5063338;28;20446;-72
2023/05/22 14:00:43;;;;;;;10.70;9.50;;;29.60;28.30;;;;;;5066304;28;20524;-71
2023/05/22 14:03:30;;;;;;;11.60;8.93;;;29.60;27.60;;;;;;5060072;28;20475;-72
2023/05/22 14:06:15;;;;;;;8.27;6.43;;;29.70;27.60;;;;;;5064748;28;20456;-72
2023/05/22 14:09:01;;;;;;;10.57;6.50;;;29.70;22.00;;;;;;5066657;28;20458;-72